createdAt,value
2018-08-13T00:02:03.578Z,98787.00
2018-08-13T00:04:08.026Z,98787.00
2018-08-13T00:06:12.535Z,98781.00
2018-08-13T00:08:18.338Z,98777.00
2018-08-13T00:10:25.314Z,98771.00
2018-08-13T00:12:33.074Z,98776.00
2018-08-13T00:14:37.606Z,98772.00
2018-08-13T00:16:42.082Z,98774.00
2018-08-13T00:18:46.586Z,98768.00
2018-08-13T00:20:51.109Z,98761.00
2018-08-13T00:22:55.562Z,98752.00
2018-08-13T00:25:00.079Z,98754.00
2018-08-13T00:27:04.593Z,98751.00
2018-08-13T00:29:09.092Z,98743.00
2018-08-13T00:31:13.578Z,98747.00
2018-08-13T00:33:18.057Z,98754.00
2018-08-13T00:35:22.536Z,98753.00
2018-08-13T00:37:27.006Z,98752.00
2018-08-13T00:39:31.584Z,98751.00
2018-08-13T00:41:36.023Z,98741.00
2018-08-13T00:43:40.454Z,98735.00
2018-08-13T00:45:44.975Z,98733.00
2018-08-13T00:47:49.477Z,98729.00
2018-08-13T00:49:53.906Z,98732.00
2018-08-13T00:51:58.418Z,98727.00
2018-08-13T00:54:02.908Z,98738.00
2018-08-13T00:56:07.539Z,98733.00
2018-08-13T00:58:12.049Z,98732.00
2018-08-13T01:00:22.268Z,98732.00
2018-08-13T01:02:29.894Z,98721.00
2018-08-13T01:04:37.264Z,98725.00
2018-08-13T01:06:44.650Z,98725.00
2018-08-13T01:08:52.849Z,98713.00
2018-08-13T01:11:00.415Z,98710.00
2018-08-13T01:13:08.110Z,98701.00
2018-08-13T01:15:16.246Z,98705.00
2018-08-13T01:17:24.664Z,98716.00
2018-08-13T01:19:30.723Z,98707.00
2018-08-13T01:21:39.946Z,98703.00
2018-08-13T01:23:47.472Z,98699.00
2018-08-13T01:25:55.554Z,98706.00
2018-08-13T01:28:01.819Z,98702.00
2018-08-13T01:30:09.383Z,98694.00
2018-08-13T01:32:16.358Z,98693.00
2018-08-13T01:34:23.692Z,98694.00
2018-08-13T01:36:30.878Z,98693.00
2018-08-13T01:38:37.414Z,98698.00
2018-08-13T01:40:44.134Z,98690.00
2018-08-13T01:42:53.010Z,98680.00
2018-08-13T01:44:58.827Z,98690.00
2018-08-13T01:47:06.914Z,98681.00
2018-08-13T01:49:13.507Z,98677.00
2018-08-13T01:51:19.457Z,98678.00
2018-08-13T01:53:26.883Z,98672.00
2018-08-13T01:55:32.262Z,98672.00
2018-08-13T01:57:36.807Z,98673.00
2018-08-13T01:59:45.041Z,98677.00
2018-08-13T02:01:51.589Z,98677.00
2018-08-13T02:03:56.037Z,98675.00
2018-08-13T02:06:00.564Z,98682.00
2018-08-13T02:08:05.190Z,98678.00
2018-08-13T02:10:12.301Z,98673.00
2018-08-13T02:12:16.851Z,98678.00
2018-08-13T02:14:21.372Z,98673.00
2018-08-13T02:16:25.955Z,98663.00
2018-08-13T02:18:30.453Z,98660.00
2018-08-13T02:20:34.939Z,98661.00
2018-08-13T02:22:39.632Z,98656.00
2018-08-13T02:24:44.063Z,98657.00
2018-08-13T02:26:48.750Z,98653.00
2018-08-13T02:28:53.264Z,98653.00
2018-08-13T02:30:57.762Z,98656.00
2018-08-13T02:33:02.287Z,98650.00
2018-08-13T02:35:07.916Z,98647.00
2018-08-13T02:37:12.470Z,98642.00
2018-08-13T02:39:17.119Z,98637.00
2018-08-13T02:41:21.659Z,98637.00
2018-08-13T02:43:26.139Z,98635.00
2018-08-13T02:45:30.587Z,98635.00
2018-08-13T02:47:35.105Z,98631.00
2018-08-13T02:49:39.726Z,98632.00
2018-08-13T02:51:44.290Z,98621.00
2018-08-13T02:53:48.842Z,98623.00
2018-08-13T02:55:53.351Z,98619.00
2018-08-13T02:57:57.895Z,98614.00
2018-08-13T03:00:02.461Z,98613.00
2018-08-13T03:02:06.939Z,98615.00
2018-08-13T03:04:11.402Z,98604.00
2018-08-13T03:06:15.913Z,98600.00
2018-08-13T03:08:20.417Z,98601.00
2018-08-13T03:10:24.942Z,98601.00
2018-08-13T03:12:29.494Z,98591.00
2018-08-13T03:14:33.958Z,98576.00
2018-08-13T03:16:38.508Z,98577.00
2018-08-13T03:18:42.939Z,98575.00
2018-08-13T03:20:47.475Z,98584.00
2018-08-13T03:22:51.978Z,98580.00
2018-08-13T03:24:56.439Z,98582.00
2018-08-13T03:27:00.949Z,98582.00
2018-08-13T03:29:05.602Z,98580.00
2018-08-13T03:31:10.146Z,98582.00
2018-08-13T03:33:14.661Z,98585.00
2018-08-13T03:35:19.225Z,98579.00
2018-08-13T03:37:24.187Z,98571.00
2018-08-13T03:39:28.625Z,98571.00
2018-08-13T03:41:33.169Z,98564.00
2018-08-13T03:43:37.666Z,98566.00
2018-08-13T03:45:42.166Z,98569.00
2018-08-13T03:47:46.679Z,98564.00
2018-08-13T03:49:51.140Z,98568.00
2018-08-13T03:51:55.603Z,98572.00
2018-08-13T03:54:00.916Z,98565.00
2018-08-13T03:56:06.502Z,98557.00
2018-08-13T03:58:10.981Z,98569.00
2018-08-13T04:00:16.601Z,98560.00
2018-08-13T04:02:21.090Z,98560.00
2018-08-13T04:04:27.619Z,98547.00
2018-08-13T04:06:35.851Z,98543.00
2018-08-13T04:08:44.222Z,98538.00
2018-08-13T04:10:51.156Z,98553.00
2018-08-13T04:12:58.977Z,98544.00
2018-08-13T04:15:07.372Z,98548.00
2018-08-13T04:17:15.621Z,98572.00
2018-08-13T04:19:22.378Z,98584.00
2018-08-13T04:21:27.853Z,98577.00
2018-08-13T04:23:34.488Z,98573.00
2018-08-13T04:25:41.372Z,98585.00
2018-08-13T04:27:46.930Z,98578.00
2018-08-13T04:29:54.842Z,98598.00
2018-08-13T04:32:00.318Z,98598.00
2018-08-13T04:34:06.858Z,98601.00
2018-08-13T04:36:11.340Z,98606.00
2018-08-13T04:38:15.789Z,98596.00
2018-08-13T04:40:20.354Z,98601.00
2018-08-13T04:42:25.611Z,98603.00
2018-08-13T04:44:30.094Z,98606.00
2018-08-13T04:46:34.533Z,98613.00
2018-08-13T04:48:38.976Z,98610.00
2018-08-13T04:50:43.473Z,98612.00
2018-08-13T04:52:48.079Z,98617.00
2018-08-13T04:54:52.541Z,98619.00
2018-08-13T04:56:56.997Z,98628.00
2018-08-13T04:59:01.533Z,98628.00
2018-08-13T05:01:06.023Z,98621.00
2018-08-13T05:03:10.532Z,98627.00
2018-08-13T05:05:15.086Z,98629.00
2018-08-13T05:07:19.803Z,98628.00
2018-08-13T05:09:24.261Z,98629.00
2018-08-13T05:11:28.730Z,98626.00
2018-08-13T05:13:33.242Z,98618.00
2018-08-13T05:15:37.806Z,98619.00
2018-08-13T05:17:42.411Z,98635.00
2018-08-13T05:19:46.933Z,98636.00
2018-08-13T05:21:51.751Z,98629.00
2018-08-13T05:23:56.186Z,98626.00
2018-08-13T05:26:00.662Z,98639.00
2018-08-13T05:28:05.152Z,98645.00
2018-08-13T05:30:11.935Z,98644.00
2018-08-13T05:32:16.390Z,98650.00
2018-08-13T05:34:21.436Z,98641.00
2018-08-13T05:36:26.061Z,98644.00
2018-08-13T05:38:30.563Z,98652.00
2018-08-13T05:40:35.047Z,98638.00
2018-08-13T05:42:40.161Z,98637.00
2018-08-13T05:44:44.634Z,98647.00
2018-08-13T05:46:49.441Z,98637.00
2018-08-13T05:48:54.542Z,98636.00
2018-08-13T05:50:59.134Z,98641.00
2018-08-13T05:53:03.785Z,98632.00
2018-08-13T05:55:09.014Z,98644.00
2018-08-13T05:57:13.676Z,98643.00
2018-08-13T05:59:18.161Z,98651.00
2018-08-13T06:01:22.714Z,98649.00
2018-08-13T06:03:27.190Z,98657.00
2018-08-13T06:05:31.731Z,98659.00
2018-08-13T06:07:36.214Z,98656.00
2018-08-13T06:09:40.786Z,98662.00
2018-08-13T06:11:45.423Z,98676.00
2018-08-13T06:13:49.931Z,98681.00
2018-08-13T06:15:54.437Z,98673.00
2018-08-13T06:17:59.025Z,98679.00
2018-08-13T06:20:03.834Z,98684.00
2018-08-13T06:22:08.338Z,98690.00
2018-08-13T06:24:12.952Z,98691.00
2018-08-13T06:26:17.534Z,98688.00
2018-08-13T06:28:22.848Z,98687.00
2018-08-13T06:30:29.949Z,98679.00
2018-08-13T06:32:34.451Z,98684.00
2018-08-13T06:34:39.030Z,98680.00
2018-08-13T06:36:43.503Z,98679.00
2018-08-13T06:38:48.241Z,98674.00
2018-08-13T06:40:52.974Z,98664.00
2018-08-13T06:42:58.338Z,98654.00
2018-08-13T06:45:02.890Z,98633.00
2018-08-13T06:47:07.739Z,98620.00
2018-08-13T06:49:12.281Z,98608.00
2018-08-13T06:51:16.806Z,98588.00
2018-08-13T06:53:21.301Z,98612.00
2018-08-13T06:55:25.857Z,98610.00
2018-08-13T06:57:30.510Z,98600.00
2018-08-13T06:59:35.330Z,98606.00
2018-08-13T07:01:39.809Z,98611.00
2018-08-13T07:03:44.307Z,98616.00
2018-08-13T07:05:48.849Z,98603.00
2018-08-13T07:07:53.310Z,98597.00
2018-08-13T07:09:57.982Z,98607.00
2018-08-13T07:12:02.494Z,98605.00
2018-08-13T07:14:07.393Z,98601.00
2018-08-13T07:16:11.825Z,98590.00
2018-08-13T07:18:16.429Z,98591.00
2018-08-13T07:20:20.931Z,98587.00
2018-08-13T07:22:25.487Z,98581.00
2018-08-13T07:24:29.977Z,98583.00
2018-08-13T07:26:34.502Z,98584.00
2018-08-13T07:28:39.009Z,98592.00
2018-08-13T07:30:43.514Z,98590.00
2018-08-13T07:32:48.130Z,98598.00
2018-08-13T07:34:52.605Z,98597.00
2018-08-13T07:36:57.095Z,98614.00
2018-08-13T07:39:02.248Z,98610.00
2018-08-13T07:41:06.766Z,98616.00
2018-08-13T07:43:11.211Z,98618.00
2018-08-13T07:45:15.790Z,98627.00
2018-08-13T07:47:20.354Z,98610.00
2018-08-13T07:49:24.825Z,98623.00
2018-08-13T07:51:29.380Z,98610.00
2018-08-13T07:53:33.869Z,98621.00
2018-08-13T07:55:38.451Z,98638.00
2018-08-13T07:57:42.995Z,98644.00
2018-08-13T07:59:47.502Z,98638.00
2018-08-13T08:01:52.045Z,98636.00
2018-08-13T08:03:56.560Z,98646.00
2018-08-13T08:06:01.683Z,98646.00
2018-08-13T08:08:06.198Z,98640.00
2018-08-13T08:10:14.584Z,98644.00
2018-08-13T08:12:19.201Z,98648.00
2018-08-13T08:14:23.789Z,98646.00
2018-08-13T08:16:28.422Z,98647.00
2018-08-13T08:18:33.161Z,98648.00
2018-08-13T08:20:37.715Z,98653.00
2018-08-13T08:22:42.385Z,98643.00
2018-08-13T08:24:47.018Z,98645.00
2018-08-13T08:26:51.540Z,98649.00
2018-08-13T08:28:56.065Z,98634.00
2018-08-13T08:31:01.387Z,98637.00
2018-08-13T08:33:09.684Z,98634.00
2018-08-13T08:35:17.706Z,98639.00
2018-08-13T08:37:22.402Z,98635.00
2018-08-13T08:39:31.052Z,98633.00
2018-08-13T08:41:39.092Z,98629.00
2018-08-13T08:43:46.353Z,98629.00
2018-08-13T08:45:53.441Z,98628.00
2018-08-13T08:47:58.326Z,98632.00
2018-08-13T08:50:03.031Z,98639.00
2018-08-13T08:52:07.799Z,98642.00
2018-08-13T08:54:13.652Z,98631.00
2018-08-13T08:56:18.166Z,98640.00
2018-08-13T08:58:22.730Z,98643.00
2018-08-13T09:00:27.297Z,98638.00
2018-08-13T09:02:31.830Z,98642.00
2018-08-13T09:04:36.390Z,98636.00
2018-08-13T09:06:40.891Z,98643.00
2018-08-13T09:08:45.480Z,98653.00
2018-08-13T09:10:50.105Z,98648.00
2018-08-13T09:12:54.546Z,98637.00
2018-08-13T09:14:59.021Z,98639.00
2018-08-13T09:17:03.594Z,98642.00
2018-08-13T09:19:26.056Z,98634.00
2018-08-13T09:21:34.038Z,98641.00
2018-08-13T09:24:53.693Z,98642.00
2018-08-13T09:27:15.044Z,98643.00
2018-08-13T09:29:36.517Z,98636.00
2018-08-13T09:32:32.160Z,98638.00
2018-08-13T09:34:55.262Z,98631.00
2018-08-13T09:37:00.390Z,98627.00
2018-08-13T09:39:07.147Z,98615.00
2018-08-13T09:41:12.459Z,98618.00
2018-08-13T09:43:16.997Z,98621.00
2018-08-13T09:45:21.489Z,98623.00
2018-08-13T09:47:26.172Z,98627.00
2018-08-13T09:49:30.630Z,98617.00
2018-08-13T09:51:35.106Z,98614.00
2018-08-13T09:53:39.662Z,98621.00
2018-08-13T09:55:44.173Z,98620.00
2018-08-13T09:57:49.482Z,98611.00
2018-08-13T09:59:53.902Z,98616.00
2018-08-13T10:01:58.430Z,98602.00
2018-08-13T10:04:02.906Z,98603.00
2018-08-13T10:06:07.559Z,98605.00
2018-08-13T10:08:12.067Z,98606.00
2018-08-13T10:10:17.332Z,98604.00
2018-08-13T10:12:21.846Z,98613.00
2018-08-13T10:14:26.434Z,98613.00
2018-08-13T10:16:30.930Z,98619.00
2018-08-13T10:18:35.505Z,98616.00
2018-08-13T10:20:40.190Z,98614.00
2018-08-13T10:22:45.022Z,98620.00
2018-08-13T10:24:49.583Z,98622.00
2018-08-13T10:26:54.166Z,98620.00
2018-08-13T10:28:58.602Z,98619.00
2018-08-13T10:31:03.114Z,98622.00
2018-08-13T10:33:07.953Z,98626.00
2018-08-13T10:35:12.510Z,98617.00
2018-08-13T10:37:17.046Z,98615.00
2018-08-13T10:39:21.561Z,98612.00
2018-08-13T10:41:26.014Z,98609.00
2018-08-13T10:43:30.592Z,98613.00
2018-08-13T10:45:35.055Z,98615.00
2018-08-13T10:47:40.343Z,98617.00
2018-08-13T10:49:45.039Z,98615.00
2018-08-13T10:51:49.534Z,98616.00
2018-08-13T10:53:54.748Z,98612.00
2018-08-13T10:55:59.340Z,98613.00
2018-08-13T10:58:04.399Z,98610.00
2018-08-13T11:00:12.706Z,98611.00
2018-08-13T11:02:18.250Z,98608.00
2018-08-13T11:04:23.588Z,98612.00
2018-08-13T11:06:28.283Z,98616.00
2018-08-13T11:08:33.061Z,98607.00
2018-08-13T11:10:38.791Z,98610.00
2018-08-13T11:12:44.232Z,98617.00
2018-08-13T11:14:49.778Z,98614.00
2018-08-13T11:16:54.594Z,98613.00
2018-08-13T11:18:59.695Z,98608.00
2018-08-13T11:21:04.239Z,98610.00
2018-08-13T11:23:08.754Z,98616.00
2018-08-13T11:25:15.160Z,98603.00
2018-08-13T11:27:20.162Z,98614.00
2018-08-13T11:29:24.695Z,98607.00
2018-08-13T11:31:29.403Z,98601.00
2018-08-13T11:33:35.051Z,98603.00
2018-08-13T11:35:39.521Z,98606.00
2018-08-13T11:37:44.157Z,98613.00
2018-08-13T11:39:48.699Z,98617.00
2018-08-13T11:41:53.197Z,98608.00
2018-08-13T11:43:57.698Z,98607.00
2018-08-13T11:46:02.189Z,98615.00
2018-08-13T11:48:06.814Z,98615.00
2018-08-13T11:50:18.845Z,98605.00
2018-08-13T11:52:23.376Z,98608.00
2018-08-13T11:54:28.154Z,98615.00
2018-08-13T11:56:32.831Z,98614.00
2018-08-13T11:58:37.289Z,98612.00
2018-08-13T12:00:41.787Z,98612.00
2018-08-13T12:02:46.498Z,98615.00
2018-08-13T12:04:50.962Z,98612.00
2018-08-13T12:06:56.181Z,98620.00
2018-08-13T12:09:00.734Z,98614.00
2018-08-13T12:11:05.264Z,98600.00
2018-08-13T12:13:09.803Z,98584.00
2018-08-13T12:15:15.285Z,98580.00
2018-08-13T12:17:20.125Z,98575.00
2018-08-13T12:19:24.735Z,98571.00
2018-08-13T12:21:29.246Z,98553.00
2018-08-13T12:23:34.566Z,98555.00
2018-08-13T12:25:39.104Z,98550.00
2018-08-13T12:27:43.620Z,98557.00
2018-08-13T12:29:48.109Z,98557.00
2018-08-13T12:31:52.644Z,98556.00
2018-08-13T12:33:57.103Z,98557.00
2018-08-13T12:36:01.626Z,98563.00
2018-08-13T12:38:06.283Z,98562.00
2018-08-13T12:40:11.158Z,98556.00
2018-08-13T12:42:15.792Z,98563.00
2018-08-13T12:44:20.361Z,98565.00
2018-08-13T12:46:24.911Z,98562.00
2018-08-13T12:48:29.613Z,98566.00
2018-08-13T12:50:34.617Z,98562.00
2018-08-13T12:52:39.134Z,98568.00
2018-08-13T12:54:43.651Z,98561.00
2018-08-13T12:56:49.320Z,98557.00
2018-08-13T12:58:53.863Z,98553.00
2018-08-13T13:00:59.361Z,98555.00
2018-08-13T13:03:03.933Z,98550.00
2018-08-13T13:05:09.763Z,98529.00
2018-08-13T13:07:14.210Z,98513.00
2018-08-13T13:09:19.158Z,98503.00
2018-08-13T13:11:23.674Z,98510.00
2018-08-13T13:13:28.366Z,98509.00
2018-08-13T13:15:32.941Z,98516.00
2018-08-13T13:17:38.658Z,98509.00
2018-08-13T13:19:43.323Z,98520.00
2018-08-13T13:21:47.879Z,98516.00
2018-08-13T13:23:52.422Z,98514.00
2018-08-13T13:25:57.348Z,98512.00
2018-08-13T13:28:01.858Z,98505.00
2018-08-13T13:30:09.935Z,98506.00
2018-08-13T13:32:14.510Z,98515.00
2018-08-13T13:34:19.854Z,98517.00
2018-08-13T13:36:24.395Z,98524.00
2018-08-13T13:38:30.358Z,98530.00
2018-08-13T13:40:34.905Z,98522.00
2018-08-13T13:42:41.090Z,98520.00
2018-08-13T13:44:45.724Z,98513.00
2018-08-13T13:46:50.283Z,98524.00
2018-08-13T13:48:54.915Z,98536.00
2018-08-13T13:50:59.449Z,98545.00
2018-08-13T13:53:04.082Z,98547.00
2018-08-13T13:55:09.122Z,98548.00
2018-08-13T13:57:13.647Z,98552.00
2018-08-13T13:59:18.555Z,98552.00
2018-08-13T14:01:23.038Z,98559.00
2018-08-13T14:03:27.535Z,98562.00
2018-08-13T14:05:32.102Z,98556.00
2018-08-13T14:07:36.726Z,98552.00
2018-08-13T14:09:41.667Z,98551.00
2018-08-13T14:11:46.342Z,98557.00
2018-08-13T14:13:51.841Z,98546.00
2018-08-13T14:15:56.462Z,98544.00
2018-08-13T14:18:00.992Z,98544.00
2018-08-13T14:20:07.463Z,98537.00
2018-08-13T14:22:11.975Z,98539.00
2018-08-13T14:24:16.539Z,98523.00
2018-08-13T14:26:21.050Z,98521.00
2018-08-13T14:28:25.666Z,98528.00
2018-08-13T14:30:30.195Z,98537.00
2018-08-13T14:32:35.033Z,98534.00
2018-08-13T14:34:39.528Z,98529.00
2018-08-13T14:36:44.018Z,98529.00
2018-08-13T14:38:48.606Z,98531.00
2018-08-13T14:40:53.146Z,98540.00
2018-08-13T14:42:57.763Z,98541.00
2018-08-13T14:45:02.260Z,98541.00
2018-08-13T14:47:06.775Z,98549.00
2018-08-13T14:49:11.290Z,98547.00
2018-08-13T14:51:15.911Z,98555.00
2018-08-13T14:53:20.383Z,98547.00
2018-08-13T14:55:24.882Z,98555.00
2018-08-13T14:57:29.499Z,98556.00
2018-08-13T14:59:34.083Z,98555.00
2018-08-13T15:01:38.607Z,98560.00
2018-08-13T15:03:43.293Z,98563.00
2018-08-13T15:05:47.775Z,98580.00
2018-08-13T15:07:53.117Z,98607.00
2018-08-13T15:09:57.751Z,98628.00
2018-08-13T15:12:02.323Z,98635.00
2018-08-13T15:14:07.415Z,98650.00
2018-08-13T15:16:12.229Z,98637.00
2018-08-13T15:18:16.850Z,98664.00
2018-08-13T15:20:25.270Z,98668.00
2018-08-13T15:22:34.488Z,98652.00
2018-08-13T15:24:40.864Z,98652.00
2018-08-13T15:26:45.346Z,98656.00
2018-08-13T15:28:49.886Z,98638.00
2018-08-13T15:30:54.742Z,98640.00
2018-08-13T15:32:59.755Z,98642.00
2018-08-13T15:35:04.380Z,98649.00
2018-08-13T15:37:08.990Z,98640.00
2018-08-13T15:39:13.990Z,98643.00
2018-08-13T15:41:19.003Z,98635.00
2018-08-13T15:43:23.542Z,98628.00
2018-08-13T15:45:28.210Z,98628.00
2018-08-13T15:47:32.702Z,98623.00
2018-08-13T15:49:37.226Z,98627.00
2018-08-13T15:51:41.766Z,98619.00
2018-08-13T15:53:46.507Z,98630.00
2018-08-13T15:55:51.355Z,98627.00
2018-08-13T15:57:55.834Z,98623.00
2018-08-13T16:00:00.563Z,98624.00
2018-08-13T16:02:05.875Z,98621.00
2018-08-13T16:04:10.406Z,98628.00
2018-08-13T16:06:14.902Z,98618.00
2018-08-13T16:08:19.396Z,98615.00
2018-08-13T16:10:24.163Z,98613.00
2018-08-13T16:12:28.766Z,98611.00
2018-08-13T16:14:33.580Z,98613.00
2018-08-13T16:16:38.590Z,98603.00
2018-08-13T16:18:43.886Z,98607.00
2018-08-13T16:20:48.420Z,98611.00
2018-08-13T16:22:52.964Z,98615.00
2018-08-13T16:24:57.486Z,98614.00
2018-08-13T16:27:02.123Z,98616.00
2018-08-13T16:29:07.320Z,98619.00
2018-08-13T16:31:11.902Z,98618.00
2018-08-13T16:33:16.495Z,98617.00
2018-08-13T16:35:21.896Z,98611.00
2018-08-13T16:37:27.198Z,98607.00
2018-08-13T16:39:31.725Z,98611.00
2018-08-13T16:41:36.486Z,98607.00
2018-08-13T16:43:41.014Z,98602.00
2018-08-13T16:45:45.486Z,98599.00
2018-08-13T16:47:50.202Z,98599.00
2018-08-13T16:49:57.378Z,98596.00
2018-08-13T16:52:01.951Z,98596.00
2018-08-13T16:54:06.506Z,98599.00
2018-08-13T16:56:11.794Z,98595.00
2018-08-13T16:58:16.282Z,98594.00
2018-08-13T17:00:24.019Z,98587.00
2018-08-13T17:02:28.573Z,98585.00
2018-08-13T17:04:34.194Z,98589.00
2018-08-13T17:06:38.894Z,98584.00
2018-08-13T17:08:43.447Z,98583.00
2018-08-13T17:10:48.111Z,98586.00
2018-08-13T17:12:53.256Z,98584.00
2018-08-13T17:14:58.135Z,98586.00
2018-08-13T17:17:02.869Z,98576.00
2018-08-13T17:19:07.442Z,98582.00
2018-08-13T17:21:12.062Z,98576.00
2018-08-13T17:23:16.505Z,98576.00
2018-08-13T17:25:21.126Z,98569.00
2018-08-13T17:27:26.126Z,98586.00
2018-08-13T17:29:30.702Z,98585.00
2018-08-13T17:31:35.844Z,98589.00
2018-08-13T17:33:40.613Z,98590.00
2018-08-13T17:35:45.476Z,98591.00
2018-08-13T17:37:50.591Z,98584.00
2018-08-13T17:39:55.986Z,98589.00
2018-08-13T17:42:03.517Z,98588.00
2018-08-13T17:44:08.147Z,98583.00
2018-08-13T17:46:13.106Z,98587.00
2018-08-13T17:48:18.037Z,98591.00
2018-08-13T17:50:24.182Z,98594.00
2018-08-13T17:52:29.158Z,98591.00
2018-08-13T17:54:33.721Z,98585.00
2018-08-13T17:56:38.222Z,98581.00
2018-08-13T17:58:42.749Z,98587.00
2018-08-13T18:00:47.340Z,98586.00
2018-08-13T18:02:51.840Z,98593.00
2018-08-13T18:04:56.366Z,98588.00
2018-08-13T18:07:00.978Z,98599.00
2018-08-13T18:09:10.019Z,98599.00
2018-08-13T18:11:14.658Z,98598.00
2018-08-13T18:13:19.170Z,98601.00
2018-08-13T18:15:24.913Z,98598.00
2018-08-13T18:17:29.610Z,98600.00
2018-08-13T18:19:34.298Z,98608.00
2018-08-13T18:21:39.520Z,98615.00
2018-08-13T18:23:44.100Z,98613.00
2018-08-13T18:25:48.562Z,98621.00
2018-08-13T18:27:53.389Z,98625.00
2018-08-13T18:29:58.158Z,98631.00
2018-08-13T18:32:02.998Z,98637.00
2018-08-13T18:34:08.611Z,98628.00
2018-08-13T18:36:13.112Z,98629.00
2018-08-13T18:38:17.577Z,98640.00
2018-08-13T18:40:26.348Z,98639.00
2018-08-13T18:42:31.587Z,98643.00
2018-08-13T18:44:36.424Z,98646.00
2018-08-13T18:46:41.075Z,98651.00
2018-08-13T18:48:45.857Z,98650.00
2018-08-13T18:50:51.416Z,98650.00
2018-08-13T18:52:56.115Z,98649.00
2018-08-13T18:55:01.593Z,98653.00
2018-08-13T18:57:06.549Z,98660.00
2018-08-13T18:59:11.092Z,98663.00
2018-08-13T19:01:16.456Z,98665.00
2018-08-13T19:03:21.406Z,98665.00
2018-08-13T19:05:25.973Z,98663.00
2018-08-13T19:07:30.614Z,98669.00
2018-08-13T19:09:35.129Z,98672.00
2018-08-13T19:11:39.914Z,98667.00
2018-08-13T19:13:44.727Z,98685.00
2018-08-13T19:15:49.670Z,98673.00
2018-08-13T19:17:54.821Z,98680.00
2018-08-13T19:19:59.710Z,98673.00
2018-08-13T19:22:04.499Z,98674.00
2018-08-13T19:24:09.654Z,98672.00
2018-08-13T19:26:15.298Z,98670.00
2018-08-13T19:28:21.273Z,98673.00
2018-08-13T19:30:26.624Z,98676.00
2018-08-13T19:32:31.818Z,98681.00
2018-08-13T19:34:37.123Z,98685.00
2018-08-13T19:36:42.056Z,98692.00
2018-08-13T19:38:47.192Z,98678.00
2018-08-13T19:40:53.573Z,98693.00
2018-08-13T19:42:59.011Z,98689.00
2018-08-13T19:45:04.369Z,98701.00
2018-08-13T19:47:09.694Z,98694.00
2018-08-13T19:49:16.092Z,98703.00
2018-08-13T19:51:20.630Z,98705.00
2018-08-13T19:53:25.276Z,98715.00
2018-08-13T19:55:29.823Z,98711.00
2018-08-13T19:57:35.058Z,98714.00
2018-08-13T19:59:39.658Z,98710.00
2018-08-13T20:01:44.804Z,98706.00
2018-08-13T20:03:49.938Z,98711.00
2018-08-13T20:05:55.286Z,98706.00
2018-08-13T20:07:59.766Z,98717.00
2018-08-13T20:10:07.027Z,98704.00
2018-08-13T20:12:11.558Z,98708.00
2018-08-13T20:14:22.477Z,98716.00
2018-08-13T20:16:29.045Z,98710.00
2018-08-13T20:18:35.032Z,98715.00
2018-08-13T20:20:42.354Z,98709.00
2018-08-13T20:22:48.768Z,98714.00
2018-08-13T20:24:53.603Z,98714.00
2018-08-13T20:26:58.177Z,98712.00
2018-08-13T20:29:02.721Z,98720.00
2018-08-13T20:31:07.600Z,98712.00
2018-08-13T20:33:12.410Z,98716.00
2018-08-13T20:35:22.130Z,98712.00
2018-08-13T20:37:28.036Z,98714.00
2018-08-13T20:39:37.848Z,98723.00
2018-08-13T20:41:42.646Z,98722.00
2018-08-13T20:43:47.204Z,98729.00
2018-08-13T20:45:51.723Z,98725.00
2018-08-13T20:47:56.774Z,98729.00
2018-08-13T20:50:01.302Z,98722.00
2018-08-13T20:52:05.807Z,98735.00
2018-08-13T20:54:11.127Z,98732.00
2018-08-13T20:56:16.378Z,98727.00
2018-08-13T20:58:20.946Z,98732.00
2018-08-13T21:00:28.757Z,98742.00
2018-08-13T21:02:33.334Z,98743.00
2018-08-13T21:04:38.593Z,98747.00
2018-08-13T21:06:43.079Z,98752.00
2018-08-13T21:08:48.103Z,98747.00
2018-08-13T21:10:52.881Z,98755.00
2018-08-13T21:12:57.762Z,98749.00
2018-08-13T21:15:02.621Z,98751.00
2018-08-13T21:17:07.465Z,98752.00
2018-08-13T21:19:12.038Z,98751.00
2018-08-13T21:21:16.590Z,98754.00
2018-08-13T21:23:21.062Z,98757.00
2018-08-13T21:25:25.710Z,98763.00
2018-08-13T21:27:30.982Z,98756.00
2018-08-13T21:29:35.518Z,98760.00
2018-08-13T21:31:40.134Z,98770.00
2018-08-13T21:33:45.240Z,98764.00
2018-08-13T21:35:50.046Z,98761.00
2018-08-13T21:37:54.718Z,98767.00
2018-08-13T21:39:59.799Z,98767.00
2018-08-13T21:42:04.317Z,98772.00
2018-08-13T21:44:11.066Z,98773.00
2018-08-13T21:46:16.108Z,98773.00
2018-08-13T21:48:20.878Z,98760.00
2018-08-13T21:50:25.699Z,98764.00
2018-08-13T21:52:30.235Z,98777.00
2018-08-13T21:54:34.936Z,98775.00
2018-08-13T21:56:39.927Z,98780.00
2018-08-13T21:58:44.646Z,98785.00
2018-08-13T22:00:54.321Z,98780.00
2018-08-13T22:03:03.229Z,98792.00
2018-08-13T22:05:07.733Z,98791.00
2018-08-13T22:07:12.970Z,98787.00
2018-08-13T22:09:17.478Z,98785.00
2018-08-13T22:11:22.018Z,98785.00
2018-08-13T22:13:26.614Z,98788.00
2018-08-13T22:15:32.558Z,98792.00
2018-08-13T22:17:37.129Z,98783.00
2018-08-13T22:19:41.743Z,98788.00
2018-08-13T22:21:46.226Z,98793.00
2018-08-13T22:24:07.650Z,98791.00
2018-08-13T22:26:12.202Z,98788.00
2018-08-13T22:28:18.596Z,98787.00
2018-08-13T22:30:23.206Z,98794.00
2018-08-13T22:32:27.742Z,98793.00
2018-08-13T22:34:32.252Z,98809.00
2018-08-13T22:36:36.870Z,98804.00
2018-08-13T22:38:41.500Z,98812.00
2018-08-13T22:40:46.054Z,98808.00
2018-08-13T22:42:50.715Z,98819.00
2018-08-13T22:44:55.158Z,98818.00
2018-08-13T22:46:59.754Z,98812.00
2018-08-13T22:49:04.323Z,98811.00
2018-08-13T22:51:08.842Z,98827.00
2018-08-13T22:53:13.314Z,98821.00
2018-08-13T22:55:18.914Z,98818.00
2018-08-13T22:57:26.753Z,98824.00
2018-08-13T22:59:31.334Z,98825.00
2018-08-13T23:01:35.878Z,98828.00
2018-08-13T23:03:40.350Z,98826.00
2018-08-13T23:05:44.890Z,98820.00
2018-08-13T23:07:49.457Z,98820.00
2018-08-13T23:09:53.967Z,98834.00
2018-08-13T23:11:58.548Z,98825.00
2018-08-13T23:14:03.044Z,98836.00
2018-08-13T23:16:07.668Z,98833.00
2018-08-13T23:18:12.229Z,98839.00
2018-08-13T23:20:27.409Z,98832.00
2018-08-13T23:22:47.603Z,98829.00
2018-08-13T23:24:52.066Z,98837.00
2018-08-13T23:26:56.786Z,98839.00
2018-08-13T23:29:01.251Z,98834.00
2018-08-13T23:31:05.771Z,98831.00
2018-08-13T23:33:10.348Z,98839.00
2018-08-13T23:35:15.710Z,98831.00
2018-08-13T23:37:20.267Z,98846.00
2018-08-13T23:39:24.763Z,98846.00
2018-08-13T23:41:29.380Z,98847.00
2018-08-13T23:43:33.870Z,98852.00
2018-08-13T23:45:38.401Z,98844.00
2018-08-13T23:47:42.973Z,98846.00
2018-08-13T23:49:47.522Z,98845.00
2018-08-13T23:51:52.677Z,98851.00
2018-08-13T23:53:57.210Z,98845.00
2018-08-13T23:56:06.903Z,98844.00
2018-08-13T23:58:13.798Z,98844.00
